sensor_id;sensor_type;location;lat;lon;timestamp;P1;durP1;ratioP1;P2;durP2;ratioP2
21198;SDS011;10757;51.038;3.712;2023-02-12T00:00:52;17.60;;;12.95;;
21198;SDS011;10757;51.038;3.712;2023-02-12T00:03:18;20.08;;;13.48;;
21198;SDS011;10757;51.038;3.712;2023-02-12T00:05:45;18.50;;;13.05;;
21198;SDS011;10757;51.038;3.712;2023-02-12T00:08:11;19.38;;;13.50;;
21198;SDS011;10757;51.038;3.712;2023-02-12T00:10:42;18.48;;;12.77;;
21198;SDS011;10757;51.038;3.712;2023-02-12T00:13:11;20.27;;;12.82;;
21198;SDS011;10757;51.038;3.712;2023-02-12T00:15:41;19.70;;;12.43;;
21198;SDS011;10757;51.038;3.712;2023-02-12T00:18:08;17.23;;;12.95;;
21198;SDS011;10757;51.038;3.712;2023-02-12T00:20:43;21.67;;;14.38;;
21198;SDS011;10757;51.038;3.712;2023-02-12T00:23:09;21.50;;;15.30;;
21198;SDS011;10757;51.038;3.712;2023-02-12T00:25:39;18.98;;;13.32;;
21198;SDS011;10757;51.038;3.712;2023-02-12T00:28:06;20.70;;;14.10;;
21198;SDS011;10757;51.038;3.712;2023-02-12T00:30:32;19.23;;;13.35;;
21198;SDS011;10757;51.038;3.712;2023-02-12T00:32:59;18.55;;;12.35;;
21198;SDS011;10757;51.038;3.712;2023-02-12T00:35:24;18.38;;;12.35;;
21198;SDS011;10757;51.038;3.712;2023-02-12T00:37:51;18.75;;;12.30;;
21198;SDS011;10757;51.038;3.712;2023-02-12T00:40:16;16.05;;;11.73;;
21198;SDS011;10757;51.038;3.712;2023-02-12T00:42:42;16.27;;;12.20;;
21198;SDS011;10757;51.038;3.712;2023-02-12T00:45:08;14.90;;;12.18;;
21198;SDS011;10757;51.038;3.712;2023-02-12T00:47:34;15.60;;;10.65;;
21198;SDS011;10757;51.038;3.712;2023-02-12T00:50:00;19.95;;;14.15;;
21198;SDS011;10757;51.038;3.712;2023-02-12T00:52:29;21.80;;;13.77;;
21198;SDS011;10757;51.038;3.712;2023-02-12T00:54:54;17.98;;;13.98;;
21198;SDS011;10757;51.038;3.712;2023-02-12T00:57:20;15.50;;;13.02;;
21198;SDS011;10757;51.038;3.712;2023-02-12T00:59:47;18.48;;;13.93;;
21198;SDS011;10757;51.038;3.712;2023-02-12T01:02:13;15.98;;;12.77;;
21198;SDS011;10757;51.038;3.712;2023-02-12T01:04:38;15.10;;;12.43;;
21198;SDS011;10757;51.038;3.712;2023-02-12T01:07:05;15.63;;;12.60;;
21198;SDS011;10757;51.038;3.712;2023-02-12T01:09:30;17.25;;;13.10;;
21198;SDS011;10757;51.038;3.712;2023-02-12T01:12:04;23.70;;;13.88;;
21198;SDS011;10757;51.038;3.712;2023-02-12T01:14:31;19.75;;;13.75;;
21198;SDS011;10757;51.038;3.712;2023-02-12T01:16:57;15.18;;;12.15;;
21198;SDS011;10757;51.038;3.712;2023-02-12T01:19:23;26.23;;;20.17;;
21198;SDS011;10757;51.038;3.712;2023-02-12T01:21:52;28.45;;;20.67;;
21198;SDS011;10757;51.038;3.712;2023-02-12T01:24:18;16.35;;;12.60;;
21198;SDS011;10757;51.038;3.712;2023-02-12T01:26:44;15.90;;;12.75;;
21198;SDS011;10757;51.038;3.712;2023-02-12T01:29:10;16.75;;;11.70;;
21198;SDS011;10757;51.038;3.712;2023-02-12T01:31:39;19.50;;;13.10;;
21198;SDS011;10757;51.038;3.712;2023-02-12T01:34:09;15.07;;;11.88;;
21198;SDS011;10757;51.038;3.712;2023-02-12T01:36:36;15.82;;;12.20;;
21198;SDS011;10757;51.038;3.712;2023-02-12T01:39:02;22.10;;;12.82;;
21198;SDS011;10757;51.038;3.712;2023-02-12T01:41:31;18.75;;;12.05;;
21198;SDS011;10757;51.038;3.712;2023-02-12T01:44:18;16.05;;;13.18;;
21198;SDS011;10757;51.038;3.712;2023-02-12T01:46:46;16.58;;;12.50;;
21198;SDS011;10757;51.038;3.712;2023-02-12T01:49:39;19.05;;;13.80;;
21198;SDS011;10757;51.038;3.712;2023-02-12T01:52:17;18.05;;;14.68;;
21198;SDS011;10757;51.038;3.712;2023-02-12T01:54:47;20.20;;;14.27;;
21198;SDS011;10757;51.038;3.712;2023-02-12T01:57:15;21.40;;;15.50;;
21198;SDS011;10757;51.038;3.712;2023-02-12T01:59:42;20.23;;;13.25;;
21198;SDS011;10757;51.038;3.712;2023-02-12T02:02:11;19.52;;;14.82;;
21198;SDS011;10757;51.038;3.712;2023-02-12T02:04:44;20.60;;;16.15;;
21198;SDS011;10757;51.038;3.712;2023-02-12T02:07:12;20.20;;;16.55;;
21198;SDS011;10757;51.038;3.712;2023-02-12T02:09:39;18.92;;;16.20;;
21198;SDS011;10757;51.038;3.712;2023-02-12T02:12:05;19.48;;;16.15;;
21198;SDS011;10757;51.038;3.712;2023-02-12T02:14:51;21.85;;;15.77;;
21198;SDS011;10757;51.038;3.712;2023-02-12T02:28:31;17.65;;;13.73;;
21198;SDS011;10757;51.038;3.712;2023-02-12T02:31:52;16.67;;;13.02;;
21198;SDS011;10757;51.038;3.712;2023-02-12T02:33:54;18.45;;;13.18;;
21198;SDS011;10757;51.038;3.712;2023-02-12T02:39:11;21.63;;;13.63;;
21198;SDS011;10757;51.038;3.712;2023-02-12T02:41:45;17.50;;;13.65;;
21198;SDS011;10757;51.038;3.712;2023-02-12T02:45:05;17.95;;;13.48;;
21198;SDS011;10757;51.038;3.712;2023-02-12T02:47:14;16.13;;;12.93;;
21198;SDS011;10757;51.038;3.712;2023-02-12T02:49:49;19.95;;;14.57;;
21198;SDS011;10757;51.038;3.712;2023-02-12T02:52:22;24.60;;;15.45;;
21198;SDS011;10757;51.038;3.712;2023-02-12T02:55:03;23.90;;;15.38;;
21198;SDS011;10757;51.038;3.712;2023-02-12T02:57:40;17.42;;;14.30;;
21198;SDS011;10757;51.038;3.712;2023-02-12T03:00:28;19.38;;;14.30;;
21198;SDS011;10757;51.038;3.712;2023-02-12T03:06:23;18.55;;;14.65;;
21198;SDS011;10757;51.038;3.712;2023-02-12T03:09:27;19.60;;;15.35;;
21198;SDS011;10757;51.038;3.712;2023-02-12T03:11:49;19.33;;;15.23;;
21198;SDS011;10757;51.038;3.712;2023-02-12T03:14:26;21.88;;;15.57;;
21198;SDS011;10757;51.038;3.712;2023-02-12T03:17:07;18.83;;;16.08;;
21198;SDS011;10757;51.038;3.712;2023-02-12T03:19:41;22.25;;;15.93;;
21198;SDS011;10757;51.038;3.712;2023-02-12T03:22:15;22.25;;;16.58;;
21198;SDS011;10757;51.038;3.712;2023-02-12T03:24:46;22.30;;;16.98;;
21198;SDS011;10757;51.038;3.712;2023-02-12T03:27:30;25.13;;;16.88;;
21198;SDS011;10757;51.038;3.712;2023-02-12T03:29:58;23.40;;;15.85;;
21198;SDS011;10757;51.038;3.712;2023-02-12T03:40:42;22.95;;;16.30;;
21198;SDS011;10757;51.038;3.712;2023-02-12T03:43:58;21.88;;;15.80;;
21198;SDS011;10757;51.038;3.712;2023-02-12T03:48:57;23.42;;;16.88;;
21198;SDS011;10757;51.038;3.712;2023-02-12T03:53:56;21.80;;;17.13;;
21198;SDS011;10757;51.038;3.712;2023-02-12T03:56:27;23.80;;;17.75;;
21198;SDS011;10757;51.038;3.712;2023-02-12T03:59:08;22.52;;;16.40;;
21198;SDS011;10757;51.038;3.712;2023-02-12T04:01:34;20.80;;;16.13;;
21198;SDS011;10757;51.038;3.712;2023-02-12T04:04:02;23.42;;;18.08;;
21198;SDS011;10757;51.038;3.712;2023-02-12T04:06:30;25.75;;;18.52;;
21198;SDS011;10757;51.038;3.712;2023-02-12T04:08:56;26.70;;;18.30;;
21198;SDS011;10757;51.038;3.712;2023-02-12T04:11:33;24.85;;;18.92;;
21198;SDS011;10757;51.038;3.712;2023-02-12T04:17:02;26.63;;;19.52;;
21198;SDS011;10757;51.038;3.712;2023-02-12T04:28:35;32.45;;;21.25;;
21198;SDS011;10757;51.038;3.712;2023-02-12T04:31:22;31.88;;;20.98;;
21198;SDS011;10757;51.038;3.712;2023-02-12T04:39:37;28.50;;;21.15;;
21198;SDS011;10757;51.038;3.712;2023-02-12T04:42:06;29.73;;;21.90;;
21198;SDS011;10757;51.038;3.712;2023-02-12T04:44:33;25.48;;;21.17;;
21198;SDS011;10757;51.038;3.712;2023-02-12T04:47:01;26.20;;;20.00;;
21198;SDS011;10757;51.038;3.712;2023-02-12T04:49:27;34.28;;;20.20;;
21198;SDS011;10757;51.038;3.712;2023-02-12T04:51:53;36.80;;;21.80;;
21198;SDS011;10757;51.038;3.712;2023-02-12T04:54:19;25.65;;;20.08;;
21198;SDS011;10757;51.038;3.712;2023-02-12T04:56:46;30.30;;;19.98;;
21198;SDS011;10757;51.038;3.712;2023-02-12T04:59:12;29.95;;;21.67;;
21198;SDS011;10757;51.038;3.712;2023-02-12T05:01:39;31.15;;;20.75;;
21198;SDS011;10757;51.038;3.712;2023-02-12T05:04:05;28.65;;;20.40;;
21198;SDS011;10757;51.038;3.712;2023-02-12T05:06:35;30.92;;;20.35;;
21198;SDS011;10757;51.038;3.712;2023-02-12T05:09:02;29.52;;;21.25;;
21198;SDS011;10757;51.038;3.712;2023-02-12T05:11:28;26.80;;;21.45;;
21198;SDS011;10757;51.038;3.712;2023-02-12T05:13:54;30.42;;;20.63;;
21198;SDS011;10757;51.038;3.712;2023-02-12T05:16:20;33.42;;;20.98;;
21198;SDS011;10757;51.038;3.712;2023-02-12T05:18:49;30.20;;;21.30;;
21198;SDS011;10757;51.038;3.712;2023-02-12T05:21:15;31.40;;;21.40;;
21198;SDS011;10757;51.038;3.712;2023-02-12T05:23:41;33.10;;;22.17;;
21198;SDS011;10757;51.038;3.712;2023-02-12T05:26:14;32.40;;;20.98;;
21198;SDS011;10757;51.038;3.712;2023-02-12T05:28:41;29.58;;;22.35;;
21198;SDS011;10757;51.038;3.712;2023-02-12T05:31:13;32.38;;;25.52;;
21198;SDS011;10757;51.038;3.712;2023-02-12T05:33:44;30.13;;;22.48;;
21198;SDS011;10757;51.038;3.712;2023-02-12T05:36:12;30.23;;;22.38;;
21198;SDS011;10757;51.038;3.712;2023-02-12T05:38:40;33.67;;;22.80;;
21198;SDS011;10757;51.038;3.712;2023-02-12T05:41:07;35.90;;;24.42;;
21198;SDS011;10757;51.038;3.712;2023-02-12T05:43:44;36.17;;;24.88;;
21198;SDS011;10757;51.038;3.712;2023-02-12T05:46:10;33.72;;;25.08;;
21198;SDS011;10757;51.038;3.712;2023-02-12T05:48:36;37.20;;;22.52;;
21198;SDS011;10757;51.038;3.712;2023-02-12T05:53:33;38.40;;;23.90;;
21198;SDS011;10757;51.038;3.712;2023-02-12T05:56:10;33.80;;;22.27;;
21198;SDS011;10757;51.038;3.712;2023-02-12T05:58:38;31.52;;;23.48;;
21198;SDS011;10757;51.038;3.712;2023-02-12T06:01:08;34.38;;;23.83;;
21198;SDS011;10757;51.038;3.712;2023-02-12T06:03:44;34.20;;;23.58;;
21198;SDS011;10757;51.038;3.712;2023-02-12T06:06:10;39.20;;;24.10;;
21198;SDS011;10757;51.038;3.712;2023-02-12T06:08:37;41.38;;;23.70;;
21198;SDS011;10757;51.038;3.712;2023-02-12T06:11:03;38.33;;;23.77;;
21198;SDS011;10757;51.038;3.712;2023-02-12T06:13:31;36.25;;;24.95;;
21198;SDS011;10757;51.038;3.712;2023-02-12T06:15:57;37.28;;;24.88;;
21198;SDS011;10757;51.038;3.712;2023-02-12T06:18:23;39.42;;;24.85;;
21198;SDS011;10757;51.038;3.712;2023-02-12T06:20:49;42.80;;;24.15;;
21198;SDS011;10757;51.038;3.712;2023-02-12T06:23:18;32.20;;;22.58;;
21198;SDS011;10757;51.038;3.712;2023-02-12T06:25:46;32.08;;;22.80;;
21198;SDS011;10757;51.038;3.712;2023-02-12T06:28:13;31.27;;;23.30;;
21198;SDS011;10757;51.038;3.712;2023-02-12T06:30:38;38.55;;;23.67;;
21198;SDS011;10757;51.038;3.712;2023-02-12T06:33:04;36.05;;;23.80;;
21198;SDS011;10757;51.038;3.712;2023-02-12T06:35:30;35.78;;;23.38;;
21198;SDS011;10757;51.038;3.712;2023-02-12T06:37:58;34.72;;;23.83;;
21198;SDS011;10757;51.038;3.712;2023-02-12T06:40:24;31.67;;;22.85;;
21198;SDS011;10757;51.038;3.712;2023-02-12T06:42:49;37.40;;;23.73;;
21198;SDS011;10757;51.038;3.712;2023-02-12T06:45:15;33.72;;;24.42;;
21198;SDS011;10757;51.038;3.712;2023-02-12T06:47:41;40.78;;;24.00;;
21198;SDS011;10757;51.038;3.712;2023-02-12T06:50:06;38.63;;;23.70;;
21198;SDS011;10757;51.038;3.712;2023-02-12T06:52:32;37.35;;;23.48;;
21198;SDS011;10757;51.038;3.712;2023-02-12T06:54:58;33.63;;;22.33;;
21198;SDS011;10757;51.038;3.712;2023-02-12T06:57:24;33.70;;;20.90;;
21198;SDS011;10757;51.038;3.712;2023-02-12T06:59:49;38.22;;;23.35;;
21198;SDS011;10757;51.038;3.712;2023-02-12T07:02:15;38.30;;;21.92;;
21198;SDS011;10757;51.038;3.712;2023-02-12T07:04:41;42.67;;;22.55;;
21198;SDS011;10757;51.038;3.712;2023-02-12T07:07:06;35.08;;;21.73;;
21198;SDS011;10757;51.038;3.712;2023-02-12T07:09:32;32.22;;;22.20;;
21198;SDS011;10757;51.038;3.712;2023-02-12T07:11:58;31.88;;;21.63;;
21198;SDS011;10757;51.038;3.712;2023-02-12T07:14:24;39.53;;;22.77;;
21198;SDS011;10757;51.038;3.712;2023-02-12T07:16:52;35.90;;;22.40;;
21198;SDS011;10757;51.038;3.712;2023-02-12T07:19:18;41.08;;;23.85;;
21198;SDS011;10757;51.038;3.712;2023-02-12T07:21:44;39.60;;;24.10;;
21198;SDS011;10757;51.038;3.712;2023-02-12T07:24:10;38.65;;;23.50;;
21198;SDS011;10757;51.038;3.712;2023-02-12T07:26:37;38.65;;;23.95;;
21198;SDS011;10757;51.038;3.712;2023-02-12T07:29:03;43.20;;;25.17;;
21198;SDS011;10757;51.038;3.712;2023-02-12T07:31:29;37.67;;;24.33;;
21198;SDS011;10757;51.038;3.712;2023-02-12T07:33:55;35.35;;;24.33;;
21198;SDS011;10757;51.038;3.712;2023-02-12T07:36:23;31.15;;;22.73;;
21198;SDS011;10757;51.038;3.712;2023-02-12T07:38:50;45.00;;;23.95;;
21198;SDS011;10757;51.038;3.712;2023-02-12T07:41:18;39.88;;;23.85;;
21198;SDS011;10757;51.038;3.712;2023-02-12T07:43:46;56.67;;;23.42;;
21198;SDS011;10757;51.038;3.712;2023-02-12T07:46:14;46.42;;;24.13;;
21198;SDS011;10757;51.038;3.712;2023-02-12T07:48:42;36.60;;;23.23;;
21198;SDS011;10757;51.038;3.712;2023-02-12T07:51:10;38.35;;;24.60;;
21198;SDS011;10757;51.038;3.712;2023-02-12T07:53:37;41.22;;;24.90;;
21198;SDS011;10757;51.038;3.712;2023-02-12T07:56:10;40.90;;;24.90;;
21198;SDS011;10757;51.038;3.712;2023-02-12T07:58:39;38.25;;;24.38;;
21198;SDS011;10757;51.038;3.712;2023-02-12T08:01:19;36.95;;;24.80;;
21198;SDS011;10757;51.038;3.712;2023-02-12T08:03:47;36.47;;;22.92;;
21198;SDS011;10757;51.038;3.712;2023-02-12T08:06:21;51.58;;;24.90;;
21198;SDS011;10757;51.038;3.712;2023-02-12T08:08:51;41.80;;;23.88;;
21198;SDS011;10757;51.038;3.712;2023-02-12T08:11:19;79.20;;;26.25;;
21198;SDS011;10757;51.038;3.712;2023-02-12T08:13:45;38.15;;;24.77;;
21198;SDS011;10757;51.038;3.712;2023-02-12T08:16:12;42.03;;;24.67;;
21198;SDS011;10757;51.038;3.712;2023-02-12T08:18:39;35.67;;;24.50;;
21198;SDS011;10757;51.038;3.712;2023-02-12T08:21:12;40.72;;;24.08;;
21198;SDS011;10757;51.038;3.712;2023-02-12T08:23:43;61.83;;;28.95;;
21198;SDS011;10757;51.038;3.712;2023-02-12T08:26:10;43.60;;;27.02;;
21198;SDS011;10757;51.038;3.712;2023-02-12T08:28:40;51.33;;;28.80;;
21198;SDS011;10757;51.038;3.712;2023-02-12T08:31:09;45.70;;;27.10;;
21198;SDS011;10757;51.038;3.712;2023-02-12T08:33:37;42.20;;;26.13;;
21198;SDS011;10757;51.038;3.712;2023-02-12T08:36:04;38.20;;;25.35;;
21198;SDS011;10757;51.038;3.712;2023-02-12T08:38:31;38.95;;;26.23;;
21198;SDS011;10757;51.038;3.712;2023-02-12T08:41:01;43.40;;;26.67;;
21198;SDS011;10757;51.038;3.712;2023-02-12T08:43:28;41.20;;;26.17;;
21198;SDS011;10757;51.038;3.712;2023-02-12T08:45:59;68.90;;;30.50;;
21198;SDS011;10757;51.038;3.712;2023-02-12T08:48:27;47.00;;;30.58;;
21198;SDS011;10757;51.038;3.712;2023-02-12T08:50:53;43.17;;;26.90;;
21198;SDS011;10757;51.038;3.712;2023-02-12T08:53:19;61.15;;;29.33;;
21198;SDS011;10757;51.038;3.712;2023-02-12T08:55:48;40.83;;;26.58;;
21198;SDS011;10757;51.038;3.712;2023-02-12T08:58:14;50.63;;;29.33;;
21198;SDS011;10757;51.038;3.712;2023-02-12T09:00:40;45.40;;;26.85;;
21198;SDS011;10757;51.038;3.712;2023-02-12T09:03:06;37.83;;;27.20;;
21198;SDS011;10757;51.038;3.712;2023-02-12T09:05:32;47.28;;;28.25;;
21198;SDS011;10757;51.038;3.712;2023-02-12T09:08:02;73.97;;;27.90;;
21198;SDS011;10757;51.038;3.712;2023-02-12T09:10:27;37.88;;;24.88;;
21198;SDS011;10757;51.038;3.712;2023-02-12T09:12:53;48.38;;;27.42;;
21198;SDS011;10757;51.038;3.712;2023-02-12T09:15:19;34.58;;;25.63;;
21198;SDS011;10757;51.038;3.712;2023-02-12T09:17:44;37.55;;;25.13;;
21198;SDS011;10757;51.038;3.712;2023-02-12T09:20:10;46.75;;;25.70;;
21198;SDS011;10757;51.038;3.712;2023-02-12T09:22:36;38.55;;;26.15;;
21198;SDS011;10757;51.038;3.712;2023-02-12T09:25:03;40.45;;;25.63;;
21198;SDS011;10757;51.038;3.712;2023-02-12T09:27:30;56.25;;;27.85;;
21198;SDS011;10757;51.038;3.712;2023-02-12T09:29:56;37.10;;;25.17;;
21198;SDS011;10757;51.038;3.712;2023-02-12T09:32:22;35.63;;;24.08;;
21198;SDS011;10757;51.038;3.712;2023-02-12T09:34:49;35.78;;;24.77;;
21198;SDS011;10757;51.038;3.712;2023-02-12T09:37:16;48.75;;;26.33;;
21198;SDS011;10757;51.038;3.712;2023-02-12T09:39:42;41.30;;;24.00;;
21198;SDS011;10757;51.038;3.712;2023-02-12T09:45:15;43.03;;;25.85;;
21198;SDS011;10757;51.038;3.712;2023-02-12T09:47:59;39.95;;;24.95;;
21198;SDS011;10757;51.038;3.712;2023-02-12T09:50:33;51.63;;;24.70;;
21198;SDS011;10757;51.038;3.712;2023-02-12T09:53:10;36.70;;;24.48;;
21198;SDS011;10757;51.038;3.712;2023-02-12T09:55:39;45.20;;;24.23;;
21198;SDS011;10757;51.038;3.712;2023-02-12T09:58:08;34.20;;;20.05;;
21198;SDS011;10757;51.038;3.712;2023-02-12T10:00:39;35.90;;;22.67;;
21198;SDS011;10757;51.038;3.712;2023-02-12T10:03:14;42.95;;;21.75;;
21198;SDS011;10757;51.038;3.712;2023-02-12T10:05:48;32.95;;;22.48;;
21198;SDS011;10757;51.038;3.712;2023-02-12T10:11:23;32.50;;;23.05;;
21198;SDS011;10757;51.038;3.712;2023-02-12T10:14:13;33.80;;;20.20;;
21198;SDS011;10757;51.038;3.712;2023-02-12T10:28:20;23.13;;;17.23;;
21198;SDS011;10757;51.038;3.712;2023-02-12T10:33:34;41.10;;;18.90;;
21198;SDS011;10757;51.038;3.712;2023-02-12T10:36:13;35.53;;;19.60;;
21198;SDS011;10757;51.038;3.712;2023-02-12T10:38:52;28.45;;;19.00;;
21198;SDS011;10757;51.038;3.712;2023-02-12T10:41:22;32.35;;;20.20;;
21198;SDS011;10757;51.038;3.712;2023-02-12T10:43:52;23.35;;;17.25;;
21198;SDS011;10757;51.038;3.712;2023-02-12T10:46:17;24.15;;;16.17;;
21198;SDS011;10757;51.038;3.712;2023-02-12T10:48:44;21.73;;;18.15;;
21198;SDS011;10757;51.038;3.712;2023-02-12T10:59:48;28.27;;;18.23;;
21198;SDS011;10757;51.038;3.712;2023-02-12T11:02:20;29.38;;;21.10;;
21198;SDS011;10757;51.038;3.712;2023-02-12T11:04:48;30.00;;;19.10;;
21198;SDS011;10757;51.038;3.712;2023-02-12T11:07:14;66.90;;;24.75;;
21198;SDS011;10757;51.038;3.712;2023-02-12T11:12:53;34.20;;;20.23;;
21198;SDS011;10757;51.038;3.712;2023-02-12T11:17:45;22.52;;;15.88;;
21198;SDS011;10757;51.038;3.712;2023-02-12T11:23:04;31.92;;;17.50;;
21198;SDS011;10757;51.038;3.712;2023-02-12T11:25:53;32.95;;;19.27;;
21198;SDS011;10757;51.038;3.712;2023-02-12T11:29:04;24.50;;;16.30;;
21198;SDS011;10757;51.038;3.712;2023-02-12T11:31:43;22.98;;;16.50;;
21198;SDS011;10757;51.038;3.712;2023-02-12T11:34:28;34.65;;;18.73;;
21198;SDS011;10757;51.038;3.712;2023-02-12T11:36:54;44.53;;;20.65;;
21198;SDS011;10757;51.038;3.712;2023-02-12T11:39:28;39.78;;;19.77;;
21198;SDS011;10757;51.038;3.712;2023-02-12T11:42:03;39.58;;;20.05;;
21198;SDS011;10757;51.038;3.712;2023-02-12T11:44:40;27.42;;;18.58;;
21198;SDS011;10757;51.038;3.712;2023-02-12T11:47:45;31.25;;;18.20;;
21198;SDS011;10757;51.038;3.712;2023-02-12T11:50:07;30.05;;;17.75;;
21198;SDS011;10757;51.038;3.712;2023-02-12T11:52:34;22.23;;;15.90;;
21198;SDS011;10757;51.038;3.712;2023-02-12T11:55:19;27.35;;;16.95;;
21198;SDS011;10757;51.038;3.712;2023-02-12T11:57:52;38.65;;;18.67;;
21198;SDS011;10757;51.038;3.712;2023-02-12T12:00:39;30.67;;;18.17;;
21198;SDS011;10757;51.038;3.712;2023-02-12T12:05:46;56.08;;;20.02;;
21198;SDS011;10757;51.038;3.712;2023-02-12T12:08:35;30.30;;;16.20;;
21198;SDS011;10757;51.038;3.712;2023-02-12T12:11:18;27.77;;;16.30;;
21198;SDS011;10757;51.038;3.712;2023-02-12T12:13:50;36.72;;;17.50;;
21198;SDS011;10757;51.038;3.712;2023-02-12T12:17:04;54.88;;;20.63;;
21198;SDS011;10757;51.038;3.712;2023-02-12T12:20:04;25.90;;;15.82;;
21198;SDS011;10757;51.038;3.712;2023-02-12T12:22:45;28.90;;;16.13;;
21198;SDS011;10757;51.038;3.712;2023-02-12T12:25:20;33.75;;;16.58;;
21198;SDS011;10757;51.038;3.712;2023-02-12T12:27:54;27.92;;;16.90;;
21198;SDS011;10757;51.038;3.712;2023-02-12T12:33:11;29.08;;;17.83;;
21198;SDS011;10757;51.038;3.712;2023-02-12T12:35:44;23.35;;;14.43;;
21198;SDS011;10757;51.038;3.712;2023-02-12T12:38:35;28.20;;;16.25;;
21198;SDS011;10757;51.038;3.712;2023-02-12T12:52:11;29.85;;;18.13;;
21198;SDS011;10757;51.038;3.712;2023-02-12T13:03:24;29.20;;;19.42;;
21198;SDS011;10757;51.038;3.712;2023-02-12T13:06:31;31.88;;;18.75;;
21198;SDS011;10757;51.038;3.712;2023-02-12T13:09:27;40.90;;;19.02;;
21198;SDS011;10757;51.038;3.712;2023-02-12T13:19:55;34.15;;;19.38;;
21198;SDS011;10757;51.038;3.712;2023-02-12T13:25:26;29.67;;;20.52;;
21198;SDS011;10757;51.038;3.712;2023-02-12T13:27:57;27.75;;;18.83;;
21198;SDS011;10757;51.038;3.712;2023-02-12T13:30:38;32.53;;;19.23;;
21198;SDS011;10757;51.038;3.712;2023-02-12T13:33:10;39.97;;;19.58;;
21198;SDS011;10757;51.038;3.712;2023-02-12T13:35:45;32.15;;;20.10;;
21198;SDS011;10757;51.038;3.712;2023-02-12T13:38:27;31.27;;;19.65;;
21198;SDS011;10757;51.038;3.712;2023-02-12T13:41:02;34.40;;;20.17;;
21198;SDS011;10757;51.038;3.712;2023-02-12T13:46:32;29.02;;;19.90;;
21198;SDS011;10757;51.038;3.712;2023-02-12T13:55:38;34.58;;;21.30;;
21198;SDS011;10757;51.038;3.712;2023-02-12T14:01:07;28.50;;;19.45;;
21198;SDS011;10757;51.038;3.712;2023-02-12T14:03:35;28.63;;;18.92;;
21198;SDS011;10757;51.038;3.712;2023-02-12T14:08:51;36.47;;;21.60;;
21198;SDS011;10757;51.038;3.712;2023-02-12T14:11:31;32.95;;;19.92;;
21198;SDS011;10757;51.038;3.712;2023-02-12T14:13:59;29.67;;;18.23;;
21198;SDS011;10757;51.038;3.712;2023-02-12T14:21:58;38.78;;;20.80;;
21198;SDS011;10757;51.038;3.712;2023-02-12T14:27:22;34.33;;;22.55;;
21198;SDS011;10757;51.038;3.712;2023-02-12T14:35:33;61.75;;;38.65;;
21198;SDS011;10757;51.038;3.712;2023-02-12T14:40:40;29.25;;;17.02;;
21198;SDS011;10757;51.038;3.712;2023-02-12T14:45:47;24.35;;;15.55;;
21198;SDS011;10757;51.038;3.712;2023-02-12T14:51:21;28.60;;;15.88;;
21198;SDS011;10757;51.038;3.712;2023-02-12T14:53:54;26.77;;;16.20;;
21198;SDS011;10757;51.038;3.712;2023-02-12T14:56:21;32.58;;;17.98;;
21198;SDS011;10757;51.038;3.712;2023-02-12T14:58:48;28.88;;;16.58;;
21198;SDS011;10757;51.038;3.712;2023-02-12T15:01:16;30.67;;;17.90;;
21198;SDS011;10757;51.038;3.712;2023-02-12T15:03:47;33.08;;;18.55;;
21198;SDS011;10757;51.038;3.712;2023-02-12T15:06:20;34.22;;;19.48;;
21198;SDS011;10757;51.038;3.712;2023-02-12T15:08:53;25.80;;;15.88;;
21198;SDS011;10757;51.038;3.712;2023-02-12T15:14:17;25.95;;;17.15;;
21198;SDS011;10757;51.038;3.712;2023-02-12T15:22:46;33.08;;;17.50;;
21198;SDS011;10757;51.038;3.712;2023-02-12T15:27:47;35.40;;;18.75;;
21198;SDS011;10757;51.038;3.712;2023-02-12T15:30:35;27.00;;;17.05;;
21198;SDS011;10757;51.038;3.712;2023-02-12T15:33:02;30.60;;;17.50;;
21198;SDS011;10757;51.038;3.712;2023-02-12T15:35:31;34.00;;;18.17;;
21198;SDS011;10757;51.038;3.712;2023-02-12T15:38:02;34.40;;;19.55;;
21198;SDS011;10757;51.038;3.712;2023-02-12T15:40:32;34.85;;;20.15;;
21198;SDS011;10757;51.038;3.712;2023-02-12T15:45:31;28.42;;;18.77;;
21198;SDS011;10757;51.038;3.712;2023-02-12T15:50:33;39.80;;;20.40;;
21198;SDS011;10757;51.038;3.712;2023-02-12T15:53:08;32.47;;;19.55;;
21198;SDS011;10757;51.038;3.712;2023-02-12T15:55:36;28.73;;;18.13;;
21198;SDS011;10757;51.038;3.712;2023-02-12T15:58:13;30.30;;;18.70;;
21198;SDS011;10757;51.038;3.712;2023-02-12T16:00:50;29.27;;;18.77;;
21198;SDS011;10757;51.038;3.712;2023-02-12T16:05:56;23.98;;;14.63;;
21198;SDS011;10757;51.038;3.712;2023-02-12T16:08:35;26.60;;;16.88;;
21198;SDS011;10757;51.038;3.712;2023-02-12T16:11:02;33.78;;;16.20;;
21198;SDS011;10757;51.038;3.712;2023-02-12T16:13:38;24.33;;;14.38;;
21198;SDS011;10757;51.038;3.712;2023-02-12T16:16:25;31.75;;;15.02;;
21198;SDS011;10757;51.038;3.712;2023-02-12T16:21:32;25.88;;;13.88;;
21198;SDS011;10757;51.038;3.712;2023-02-12T16:24:01;28.00;;;14.45;;
21198;SDS011;10757;51.038;3.712;2023-02-12T16:26:27;31.00;;;15.48;;
21198;SDS011;10757;51.038;3.712;2023-02-12T16:28:54;25.85;;;14.18;;
21198;SDS011;10757;51.038;3.712;2023-02-12T16:31:21;22.85;;;12.95;;
21198;SDS011;10757;51.038;3.712;2023-02-12T16:33:50;22.27;;;13.88;;
21198;SDS011;10757;51.038;3.712;2023-02-12T16:43:41;32.25;;;18.33;;
21198;SDS011;10757;51.038;3.712;2023-02-12T16:46:08;37.53;;;21.10;;
21198;SDS011;10757;51.038;3.712;2023-02-12T16:48:36;32.20;;;16.45;;
21198;SDS011;10757;51.038;3.712;2023-02-12T16:51:29;25.10;;;13.70;;
21198;SDS011;10757;51.038;3.712;2023-02-12T16:53:54;27.80;;;14.07;;
21198;SDS011;10757;51.038;3.712;2023-02-12T16:56:22;23.63;;;13.32;;
21198;SDS011;10757;51.038;3.712;2023-02-12T16:58:51;24.50;;;14.43;;
21198;SDS011;10757;51.038;3.712;2023-02-12T17:01:32;24.25;;;13.88;;
21198;SDS011;10757;51.038;3.712;2023-02-12T17:04:00;26.55;;;14.38;;
21198;SDS011;10757;51.038;3.712;2023-02-12T17:06:31;20.67;;;13.60;;
21198;SDS011;10757;51.038;3.712;2023-02-12T17:08:57;23.10;;;12.70;;
21198;SDS011;10757;51.038;3.712;2023-02-12T17:11:31;25.90;;;14.80;;
21198;SDS011;10757;51.038;3.712;2023-02-12T17:13:57;34.28;;;15.23;;
21198;SDS011;10757;51.038;3.712;2023-02-12T17:16:23;25.05;;;15.45;;
21198;SDS011;10757;51.038;3.712;2023-02-12T17:19:09;27.80;;;14.40;;
21198;SDS011;10757;51.038;3.712;2023-02-12T17:21:36;27.95;;;14.57;;
21198;SDS011;10757;51.038;3.712;2023-02-12T17:24:19;29.77;;;15.88;;
21198;SDS011;10757;51.038;3.712;2023-02-12T17:26:48;27.70;;;16.50;;
21198;SDS011;10757;51.038;3.712;2023-02-12T17:29:22;34.08;;;21.02;;
21198;SDS011;10757;51.038;3.712;2023-02-12T17:31:49;34.00;;;22.83;;
21198;SDS011;10757;51.038;3.712;2023-02-12T17:34:20;28.75;;;17.75;;
21198;SDS011;10757;51.038;3.712;2023-02-12T17:36:47;37.75;;;18.50;;
21198;SDS011;10757;51.038;3.712;2023-02-12T17:39:13;29.02;;;17.27;;
21198;SDS011;10757;51.038;3.712;2023-02-12T17:41:41;36.97;;;19.88;;
21198;SDS011;10757;51.038;3.712;2023-02-12T17:44:08;39.03;;;21.25;;
21198;SDS011;10757;51.038;3.712;2023-02-12T17:46:35;40.67;;;22.65;;
21198;SDS011;10757;51.038;3.712;2023-02-12T17:49:02;38.47;;;18.83;;
21198;SDS011;10757;51.038;3.712;2023-02-12T17:51:28;32.38;;;18.65;;
21198;SDS011;10757;51.038;3.712;2023-02-12T17:53:54;35.00;;;20.17;;